Pasadena, TX (77504)

11:02 PM CDT on September 04, 2015 (GMT -0500)
Whitney Estates III | | Change Station
CLOSE
Current Station
Personal Weather Station
Location: Pasadena, TX
Elevation: 46 ft
Nearby Weather Stations

Elev 46 ft 29.66 °N, 95.17 °W | Updated 11 minutes ago

Partly Cloudy
Partly Cloudy
77.9 °F
Feels Like 80 °F
N
0.0
Wind Variable Wind from ESE

Today
High -- | Low -- °F
--% Chance of Precip.
Yesterday
High -- | Low -- °F
Precip. -- in
6:59 AM 7:39 PM
Waning Gibbous, 53% visible
Pressure 29.97 in
Visibility 10.0 miles
Clouds Scattered Clouds 25000 ft
Heat Index 80 °F
Dew Point 76 °F
Humidity 95%
Rainfall 0.58 in
Snow Depth Not available.
UV 0 out of 12
Pollen 6.30 out of 12
Air Quality Not available.
Flu Activity Not available.
METAR KEFD 050350Z 00000KT 10SM SCT250 27/23 A2997
Pressure 29.97 in
Visibility 10.0 miles
Clouds Scattered Clouds 25000 ft
Heat Index 80 °F
Dew Point 76 °F
Humidity 95%
Rainfall 0.58 in
Snow Depth Not available.
UV 0 out of 12
Pollen 6.30 out of 12
Air Quality Not available.
Flu Activity Not available.
METAR KEFD 050350Z 00000KT 10SM SCT250 27/23 A2997

10-Day Weather Forecast

×

Almanac

Astronomy

Sep. 04, 2015 Rise Set
Actual Time
Civil Twilight
Nautical Twilight
Astronomical Twilight
Moon
Length of Visible Light
Length of Day
Tomorrow will be .
, % of the Moon is Illuminated

Today's Extremes

State Highs State Lows

Community

WunderPhotos

Upload Photos

1,852,418 photos uploaded!

WunderBlogs® & News

Nearby

Air Quality

  Air Quality AQ Index Pollutant
Not available.

Snow Depth

Station Depth Elevation

Earthquake Activity

City Distance Mag. Time & Date
Minimum magnitude displayed is 2.5.

Coastal Water Temperatures

Place Temperature

Stations

Nearby Weather Stations

Station Location Temp. Windchill Dew Point Humidity Wind Precip. Elev Updated Type